Dale Hollow Observed Data For Previous 48 Hours

Caption
Day and Hour Reservoir Elevation (behind dam)* Tailwater Elevation (below dam)* Average Hourly Discharge*
4/22/2018 1 AM CDT 651.17 515.24 4,255
4/22/2018 2 AM CDT 651.16 515.19 4,255
4/22/2018 3 AM CDT 651.15 515.15 4,255
4/22/2018 4 AM CDT 651.15 515.15 4,435
4/22/2018 5 AM CDT 651.15 515.15 4,435
4/22/2018 6 AM CDT 651.13 515.33 4,345
4/22/2018 7 AM CDT 651.13 515.33 4,255
4/22/2018 8 AM CDT 651.13 515.33 4,345
4/22/2018 9 AM CDT 651.13 515.23 4,345
4/22/2018 10 AM CDT 651.13 515.23 4,435
4/22/2018 11 AM CDT 651.08 515.28 4,435
4/22/2018 12 PM CDT 651.08 515.28 4,435
4/22/2018 1 PM CDT 651.05 515.15 4,255
4/22/2018 2 PM CDT 651.03 515.13 4,255
4/22/2018 3 PM CDT 651.04 515.24 4,345
4/22/2018 4 PM CDT 651.04 515.24 4,345
4/22/2018 5 PM CDT 651.03 515.23 4,255
4/22/2018 6 PM CDT 651.03 515.23 4,255
4/22/2018 7 PM CDT 651.03 515.23 4,605
4/22/2018 8 PM CDT 651.03 515.23 4,605
4/22/2018 9 PM CDT 651.03 515.23 4,605
4/22/2018 10 PM CDT 651.03 515.23 4,605
4/22/2018 11 PM CDT 651.03 515.23 4,605
4/23/2018 12 AM CDT 651.03 515.23 4,605
4/23/2018 1 AM CDT 651.01 515.21 4,345
4/23/2018 2 AM CDT 651.00 515.20 4,435
4/23/2018 3 AM CDT 650.99 515.19 4,435
4/23/2018 4 AM CDT 650.98 515.18 4,255
4/23/2018 5 AM CDT 650.98 515.18 4,435
4/23/2018 6 AM CDT 650.98 515.18 4,425
4/23/2018 7 AM CDT 650.98 513.48 2,805
4/23/2018 8 AM CDT 650.98 513.48 2,805
4/23/2018 9 AM CDT 650.97 513.47 2,895
4/23/2018 10 AM CDT 650.91 513.41 2,895
4/23/2018 11 AM CDT 650.97 513.37 2,895
4/23/2018 12 PM CDT 650.98 513.38 2,805
4/23/2018 1 PM CDT 650.95 513.25 2,895
4/23/2018 2 PM CDT 650.94 513.24 2,895
4/23/2018 3 PM CDT 650.91 513.21 2,895
4/23/2018 4 PM CDT 650.91 513.21 2,985
4/23/2018 5 PM CDT 650.91 513.21 2,895
4/23/2018 6 PM CDT 650.91 513.21 2,895
4/23/2018 7 PM CDT 650.91 513.21 2,985
4/23/2018 8 PM CDT 650.92 513.19 2,895
4/23/2018 9 PM CDT 650.93 513.18 2,850
4/23/2018 10 PM CDT 650.94 513.14 2,805
4/23/2018 11 PM CDT 650.95 513.15 2,805
4/24/2018 12 AM CDT 650.97 513.07 2,725
4/24/2018 1 AM CDT 651.00 513.10 2,645
4/24/2018 2 AM CDT 651.02 513.12 2,645
4/24/2018 3 AM CDT 651.05 513.15 2,645
4/24/2018 4 AM CDT 651.07 513.27 2,555
4/24/2018 5 AM CDT 651.10 513.30 2,555
4/24/2018 6 AM CDT 651.13 513.33 2,645
4/24/2018 7 AM CDT 651.15 513.55 2,645
4/24/2018 8 AM CDT 651.58 513.58 2,645
4/24/2018 9 AM CDT 651.19 513.59 2,805
4/24/2018 10 AM CDT 651.23 513.73 2,805
4/24/2018 11 AM CDT 651.25 513.85 2,805
4/24/2018 12 PM CDT 651.29 513.89 2,895
4/24/2018 1 PM CDT 651.30 514.00 2,805
4/24/2018 2 PM CDT 651.30 514.00 2,805
4/24/2018 3 PM CDT 651.34 514.04 2,805
4/24/2018 4 PM CDT 651.36 514.16 2,825
4/24/2018 5 PM CDT 651.39 514.19 2,825
4/24/2018 6 PM CDT 651.39 514.19 2,915
4/24/2018 7 PM CDT 651.41 514.21 2,825
4/24/2018 8 PM CDT 651.44 514.24 2,915

Elevations are in feet above sea level. Discharges are in cubic feet per second and are reported at the end of the hour.